Aviation Digital Data Service (ADDS)

Output produced by TAFs form (0144 UTC 22 November 2017)
found at http://www.aviationweather.gov/adds/tafs/
 
METAR text: RJSY 220100Z 10009KT 9999 FEW015 BKN/// 06/00 Q1021
Conditions at: RJSY (SHONAI , JP) observed 0100 UTC 22 November 2017
Temperature: 6.0°C (43°F)
Dewpoint: 0.0°C (32°F) [RH = 65%]
Pressure (altimeter): 30.15 inches Hg (1021.0 mb)
Winds: from the E (100 degrees) at 10 MPH (9 knots; 4.7 m/s)
Visibility: 6 or more miles (10+ km)
Ceiling: at least 12,000 feet AGL
Clouds: few clouds at 1500 feet AGL
Weather: no significant weather observed at this time